Time;durP1;ratioP1;P1;durP2;ratioP2;P2;SDS_P1;SDS_P2;PMS_P1;PMS_P2;Temp;Humidity;BMP_temperature;BMP_pressure;BME280_temperature;BME280_humidity;BME280_pressure;Samples;Min_cycle;Max_cycle;Signal;HPM_P1;HPM_P2
2024/01/23 00:00:23;;;;;;;11.30;7.05;;;;;;;;;;10324882;28;20113;-52
2024/01/23 00:05:24;;;;;;;9.07;6.85;;;;;;;;;;10336965;28;20034;-53
2024/01/23 00:10:25;;;;;;;12.75;7.18;;;;;;;;;;10324298;28;20093;-53
2024/01/23 00:15:26;;;;;;;9.52;6.72;;;;;;;;;;10329932;28;20064;-50
2024/01/23 00:20:27;;;;;;;9.77;6.22;;;;;;;;;;10332465;28;20216;-53
2024/01/23 00:25:27;;;;;;;8.45;6.65;;;;;;;;;;10299190;28;20288;-48
2024/01/23 00:30:28;;;;;;;13.77;6.28;;;;;;;;;;10300778;28;20030;-52
2024/01/23 00:35:28;;;;;;;9.68;6.78;;;;;;;;;;10304567;28;20045;-54
2024/01/23 00:40:29;;;;;;;8.43;6.55;;;;;;;;;;10292424;28;20387;-54
2024/01/23 00:45:29;;;;;;;8.68;6.47;;;;;;;;;;10300822;28;20034;-50
2024/01/23 00:50:30;;;;;;;10.13;6.75;;;;;;;;;;10298237;28;20054;-55
2024/01/23 00:55:30;;;;;;;9.48;5.97;;;;;;;;;;10298177;28;20362;-52
2024/01/23 01:00:31;;;;;;;11.80;6.55;;;;;;;;;;10309844;28;20030;-49
2024/01/23 01:05:32;;;;;;;8.15;6.03;;;;;;;;;;10319499;28;20061;-51
2024/01/23 01:10:32;;;;;;;8.73;6.50;;;;;;;;;;10338280;28;20037;-50
2024/01/23 01:15:33;;;;;;;10.15;6.50;;;;;;;;;;10339127;28;20038;-58
2024/01/23 01:20:34;;;;;;;11.48;7.07;;;;;;;;;;10329927;28;20018;-50
2024/01/23 01:25:34;;;;;;;9.07;6.30;;;;;;;;;;10339693;28;20038;-52
2024/01/23 01:30:35;;;;;;;8.00;6.40;;;;;;;;;;10331131;28;20034;-52
2024/01/23 01:35:35;;;;;;;12.20;6.53;;;;;;;;;;10324031;28;21005;-52
2024/01/23 01:40:36;;;;;;;7.72;6.25;;;;;;;;;;10323995;28;20409;-51
2024/01/23 01:45:36;;;;;;;9.18;6.07;;;;;;;;;;10323922;28;20089;-50
2024/01/23 01:50:37;;;;;;;7.88;6.65;;;;;;;;;;10322849;28;20407;-52
2024/01/23 01:55:38;;;;;;;8.07;6.60;;;;;;;;;;10323027;28;20042;-52
2024/01/23 02:00:39;;;;;;;9.07;6.53;;;;;;;;;;10323171;28;20038;-50
2024/01/23 02:05:40;;;;;;;8.70;6.10;;;;;;;;;;10324396;28;20359;-54
2024/01/23 02:10:40;;;;;;;8.32;5.97;;;;;;;;;;10331831;28;20038;-50
2024/01/23 02:15:41;;;;;;;7.65;5.93;;;;;;;;;;10330610;28;20022;-55
2024/01/23 02:20:42;;;;;;;11.88;5.97;;;;;;;;;;10329432;28;20023;-54
2024/01/23 02:25:44;;;;;;;9.30;6.20;;;;;;;;;;10328823;28;20034;-50
2024/01/23 02:30:44;;;;;;;9.02;6.53;;;;;;;;;;10330446;28;20038;-52
2024/01/23 02:35:45;;;;;;;11.63;6.22;;;;;;;;;;10330438;28;20043;-52
2024/01/23 02:40:45;;;;;;;8.95;6.22;;;;;;;;;;10329131;28;20057;-52
2024/01/23 02:45:48;;;;;;;9.63;6.32;;;;;;;;;;10329399;28;20030;-52
2024/01/23 02:50:48;;;;;;;8.68;5.85;;;;;;;;;;10329348;28;20511;-50
2024/01/23 02:55:49;;;;;;;9.73;6.25;;;;;;;;;;10329266;28;20034;-50
2024/01/23 03:00:49;;;;;;;8.32;6.20;;;;;;;;;;10328804;28;20516;-53
2024/01/23 03:05:50;;;;;;;8.20;6.50;;;;;;;;;;10329511;28;20062;-49
2024/01/23 03:10:50;;;;;;;12.40;7.35;;;;;;;;;;10330150;28;20038;-52
2024/01/23 03:15:52;;;;;;;13.07;6.80;;;;;;;;;;10329505;28;20045;-52
2024/01/23 03:20:53;;;;;;;8.85;6.43;;;;;;;;;;10328713;28;20428;-53
2024/01/23 03:25:54;;;;;;;10.15;5.97;;;;;;;;;;10333029;28;20057;-52
2024/01/23 03:30:54;;;;;;;9.70;5.85;;;;;;;;;;10331490;28;20501;-50
2024/01/23 03:35:55;;;;;;;10.05;6.43;;;;;;;;;;10350235;28;20042;-52
2024/01/23 03:40:55;;;;;;;7.85;5.78;;;;;;;;;;10330563;28;20058;-52
2024/01/23 03:45:56;;;;;;;7.25;5.90;;;;;;;;;;10349920;28;20385;-47
2024/01/23 03:50:57;;;;;;;8.95;6.45;;;;;;;;;;10348357;28;20034;-50
2024/01/23 03:55:58;;;;;;;8.95;6.22;;;;;;;;;;10347230;28;20053;-47
2024/01/23 04:01:00;;;;;;;7.53;5.57;;;;;;;;;;10329745;28;20031;-52
2024/01/23 04:06:02;;;;;;;8.55;6.30;;;;;;;;;;10351007;28;20504;-51
2024/01/23 04:11:02;;;;;;;9.57;6.10;;;;;;;;;;10346721;28;20045;-52
2024/01/23 04:16:05;;;;;;;8.27;6.57;;;;;;;;;;10341259;28;20073;-51
2024/01/23 04:21:06;;;;;;;8.63;5.85;;;;;;;;;;10349113;28;20393;-52
2024/01/23 04:26:07;;;;;;;7.75;5.38;;;;;;;;;;10347566;28;20034;-50
2024/01/23 04:31:07;;;;;;;9.02;6.10;;;;;;;;;;10345445;28;20042;-51
2024/01/23 04:36:08;;;;;;;9.45;6.43;;;;;;;;;;10332066;28;20037;-50
2024/01/23 04:41:10;;;;;;;7.88;5.80;;;;;;;;;;10359924;28;20044;-50
2024/01/23 04:46:10;;;;;;;7.25;5.43;;;;;;;;;;10350256;28;20033;-49
2024/01/23 04:51:12;;;;;;;7.03;5.55;;;;;;;;;;10349288;28;20026;-50
2024/01/23 04:56:13;;;;;;;7.43;5.53;;;;;;;;;;10344510;28;20033;-51
2024/01/23 05:01:13;;;;;;;8.60;6.07;;;;;;;;;;10339656;28;20388;-51
2024/01/23 05:06:14;;;;;;;9.15;5.57;;;;;;;;;;10336609;28;20428;-51
2024/01/23 05:11:14;;;;;;;7.82;5.88;;;;;;;;;;10353286;28;20041;-50
2024/01/23 05:16:15;;;;;;;9.98;5.82;;;;;;;;;;10336340;28;20041;-52
2024/01/23 05:21:16;;;;;;;10.15;5.85;;;;;;;;;;10347463;28;20022;-52
2024/01/23 05:26:16;;;;;;;6.47;5.25;;;;;;;;;;10355012;28;20041;-52
2024/01/23 05:31:17;;;;;;;14.07;5.20;;;;;;;;;;10348392;28;20022;-53
2024/01/23 05:36:18;;;;;;;8.73;6.07;;;;;;;;;;10332815;28;20048;-52
2024/01/23 05:41:19;;;;;;;6.45;5.28;;;;;;;;;;10346145;28;20164;-51
2024/01/23 05:46:19;;;;;;;7.30;5.07;;;;;;;;;;10333328;28;20038;-54
2024/01/23 05:51:20;;;;;;;7.72;5.35;;;;;;;;;;10353051;28;20023;-52
2024/01/23 05:56:20;;;;;;;6.82;5.32;;;;;;;;;;10351393;28;20026;-51
2024/01/23 06:01:22;;;;;;;6.57;5.07;;;;;;;;;;10336326;28;20449;-51
2024/01/23 06:06:22;;;;;;;8.45;5.30;;;;;;;;;;10331346;28;20128;-52
2024/01/23 06:11:23;;;;;;;6.82;5.30;;;;;;;;;;10335891;28;20042;-54
2024/01/23 06:16:23;;;;;;;6.05;4.88;;;;;;;;;;10342070;28;20026;-54
2024/01/23 06:21:24;;;;;;;7.10;5.78;;;;;;;;;;10349834;28;20030;-51
2024/01/23 06:26:25;;;;;;;7.07;5.10;;;;;;;;;;10353766;28;20060;-58
2024/01/23 06:31:26;;;;;;;6.22;4.75;;;;;;;;;;10339648;28;20726;-50
2024/01/23 06:36:26;;;;;;;5.85;4.60;;;;;;;;;;10334490;28;20078;-52
2024/01/23 06:41:27;;;;;;;6.97;4.85;;;;;;;;;;10321180;28;20065;-52
2024/01/23 06:46:28;;;;;;;8.23;6.10;;;;;;;;;;10319860;28;20045;-55
2024/01/23 06:51:28;;;;;;;10.32;6.47;;;;;;;;;;10318325;28;20042;-49
2024/01/23 06:56:29;;;;;;;12.60;7.60;;;;;;;;;;10324069;28;20026;-51
2024/01/23 07:01:29;;;;;;;17.27;7.28;;;;;;;;;;10328522;28;20038;-51
2024/01/23 07:06:30;;;;;;;10.50;7.45;;;;;;;;;;10323474;28;20042;-52
2024/01/23 07:11:30;;;;;;;14.65;9.05;;;;;;;;;;10325622;28;20019;-58
2024/01/23 07:16:31;;;;;;;15.27;9.52;;;;;;;;;;10319771;28;20022;-52
2024/01/23 07:21:31;;;;;;;28.30;8.70;;;;;;;;;;10325078;28;20026;-55
2024/01/23 07:26:32;;;;;;;19.20;7.97;;;;;;;;;;10329853;28;20026;-56
2024/01/23 07:31:33;;;;;;;14.23;7.97;;;;;;;;;;10339017;28;20026;-50
2024/01/23 07:36:35;;;;;;;15.20;8.00;;;;;;;;;;10342149;28;20110;-48
2024/01/23 07:41:36;;;;;;;18.60;8.02;;;;;;;;;;10350709;28;20037;-49
2024/01/23 07:46:36;;;;;;;22.20;8.73;;;;;;;;;;10352258;28;20493;-50
2024/01/23 07:51:50;;;;;;;15.15;9.02;;;;;;;;;;10353042;28;20068;-54
2024/01/23 07:56:51;;;;;;;18.23;7.85;;;;;;;;;;10364803;28;20090;-51
2024/01/23 08:01:52;;;;;;;13.00;7.78;;;;;;;;;;10350609;28;20461;-51
2024/01/23 08:06:54;;;;;;;13.32;7.28;;;;;;;;;;10364186;28;20037;-51
2024/01/23 08:11:54;;;;;;;13.05;8.32;;;;;;;;;;10363357;28;20052;-51
2024/01/23 08:16:55;;;;;;;12.35;7.32;;;;;;;;;;10344524;28;20552;-49
2024/01/23 08:21:55;;;;;;;12.55;8.02;;;;;;;;;;10352944;28;20512;-48
2024/01/23 08:26:56;;;;;;;12.70;7.57;;;;;;;;;;10344609;28;20477;-54
2024/01/23 08:31:57;;;;;;;13.38;7.22;;;;;;;;;;10348033;28;20030;-53
2024/01/23 08:36:57;;;;;;;18.85;7.47;;;;;;;;;;10364147;28;20042;-50
2024/01/23 08:41:59;;;;;;;12.93;7.40;;;;;;;;;;10352433;28;20033;-56
2024/01/23 08:46:59;;;;;;;10.18;7.40;;;;;;;;;;10260030;28;20046;-58
2024/01/23 08:52:00;;;;;;;9.07;6.72;;;;;;;;;;10225886;28;20473;-59
2024/01/23 08:57:00;;;;;;;11.68;7.45;;;;;;;;;;10228852;28;20563;-50
2024/01/23 09:02:01;;;;;;;10.30;7.10;;;;;;;;;;10224442;28;20392;-52
2024/01/23 09:07:01;;;;;;;10.82;7.22;;;;;;;;;;10223680;28;20529;-50
2024/01/23 09:12:02;;;;;;;14.13;6.88;;;;;;;;;;10227534;28;20496;-57
2024/01/23 09:17:03;;;;;;;13.80;7.47;;;;;;;;;;10228173;28;20119;-57
2024/01/23 09:22:04;;;;;;;7.13;5.88;;;;;;;;;;10319058;28;20042;-54
2024/01/23 09:27:05;;;;;;;10.93;7.20;;;;;;;;;;10325066;28;20459;-47
2024/01/23 09:32:05;;;;;;;11.95;6.55;;;;;;;;;;10294522;28;20038;-47
2024/01/23 09:37:06;;;;;;;9.02;6.45;;;;;;;;;;10295389;28;20049;-47
2024/01/23 09:42:10;;;;;;;10.02;6.68;;;;;;;;;;10307446;28;20060;-46
2024/01/23 09:47:10;;;;;;;14.65;7.28;;;;;;;;;;10340146;28;20030;-52
2024/01/23 09:52:12;;;;;;;11.70;6.00;;;;;;;;;;10297433;28;20044;-46
2024/01/23 09:57:14;;;;;;;10.00;6.65;;;;;;;;;;10322244;28;20049;-48
2024/01/23 10:02:15;;;;;;;7.47;5.55;;;;;;;;;;10284078;28;20034;-49
2024/01/23 10:07:16;;;;;;;8.80;6.43;;;;;;;;;;10312194;28;20477;-49
2024/01/23 10:12:18;;;;;;;9.98;6.78;;;;;;;;;;10316540;28;20023;-50
2024/01/23 10:17:18;;;;;;;8.07;6.45;;;;;;;;;;10315405;28;20034;-52
2024/01/23 10:22:19;;;;;;;9.20;5.68;;;;;;;;;;10291752;28;20470;-54
2024/01/23 10:27:20;;;;;;;9.32;6.07;;;;;;;;;;10316450;28;20045;-51
2024/01/23 10:32:23;;;;;;;8.40;6.00;;;;;;;;;;10332226;28;20226;-50
2024/01/23 10:37:24;;;;;;;9.32;6.20;;;;;;;;;;10330024;28;20047;-50
2024/01/23 10:42:26;;;;;;;7.78;5.10;;;;;;;;;;10324313;28;20022;-52
2024/01/23 10:47:28;;;;;;;7.28;5.38;;;;;;;;;;10320125;28;20031;-53
2024/01/23 10:52:44;;;;;;;6.82;5.30;;;;;;;;;;10329695;28;20019;-52
2024/01/23 10:57:47;;;;;;;10.55;5.63;;;;;;;;;;10328171;28;20026;-52
2024/01/23 11:02:57;;;;;;;7.03;5.53;;;;;;;;;;10329217;28;20022;-49
2024/01/23 11:08:07;;;;;;;7.32;5.38;;;;;;;;;;10334777;28;20537;-52
2024/01/23 11:13:38;;;;;;;8.23;5.07;;;;;;;;;;10323397;28;20509;-52
2024/01/23 11:18:40;;;;;;;8.85;5.90;;;;;;;;;;10321452;28;20030;-56
2024/01/23 11:23:46;;;;;;;6.53;5.10;;;;;;;;;;10286774;28;20121;-52
2024/01/23 11:28:56;;;;;;;6.40;4.75;;;;;;;;;;10259980;28;20029;-49
2024/01/23 11:34:27;;;;;;;7.80;5.60;;;;;;;;;;10243624;28;20496;-49
2024/01/23 11:39:34;;;;;;;7.57;5.28;;;;;;;;;;10284683;28;20548;-47
2024/01/23 11:44:35;;;;;;;7.40;5.63;;;;;;;;;;10267556;28;20037;-48
2024/01/23 11:49:35;;;;;;;8.27;5.55;;;;;;;;;;10321693;28;20074;-54
2024/01/23 11:54:36;;;;;;;14.38;5.28;;;;;;;;;;10329216;28;20030;-51
2024/01/23 11:59:38;;;;;;;9.02;5.65;;;;;;;;;;10326424;28;20022;-51
2024/01/23 12:04:39;;;;;;;6.93;5.10;;;;;;;;;;10329020;28;20034;-49
2024/01/23 12:09:40;;;;;;;10.18;5.70;;;;;;;;;;10326852;28;20105;-50
2024/01/23 12:14:40;;;;;;;9.30;5.75;;;;;;;;;;10327722;28;20034;-51
2024/01/23 12:19:48;;;;;;;6.85;4.93;;;;;;;;;;10328301;28;20485;-47
2024/01/23 12:24:49;;;;;;;6.35;5.18;;;;;;;;;;10327895;28;20492;-50
2024/01/23 12:29:49;;;;;;;6.43;5.28;;;;;;;;;;10325984;28;20030;-50
2024/01/23 12:34:50;;;;;;;6.43;4.55;;;;;;;;;;10317211;28;20033;-52
2024/01/23 12:39:51;;;;;;;6.20;5.20;;;;;;;;;;10254647;28;20389;-50
2024/01/23 12:44:52;;;;;;;9.18;6.03;;;;;;;;;;10262052;28;20115;-48
2024/01/23 12:49:53;;;;;;;6.30;5.03;;;;;;;;;;10253235;28;20102;-54
2024/01/23 12:54:55;;;;;;;7.55;4.63;;;;;;;;;;10257811;28;20421;-49
2024/01/23 12:59:55;;;;;;;6.40;4.53;;;;;;;;;;10260812;28;20053;-50
2024/01/23 13:04:56;;;;;;;5.82;4.63;;;;;;;;;;10266916;28;20566;-50
2024/01/23 13:09:57;;;;;;;6.68;4.63;;;;;;;;;;10258549;28;20022;-50
2024/01/23 13:14:57;;;;;;;6.22;4.80;;;;;;;;;;10322406;28;20358;-48
2024/01/23 13:20:00;;;;;;;6.18;4.55;;;;;;;;;;10315213;28;20031;-45
2024/01/23 13:25:00;;;;;;;7.65;5.10;;;;;;;;;;10308306;28;20081;-49
2024/01/23 13:30:01;;;;;;;10.23;5.25;;;;;;;;;;10296856;28;20034;-51
2024/01/23 13:35:02;;;;;;;7.03;4.57;;;;;;;;;;10247284;28;20030;-52
2024/01/23 13:40:03;;;;;;;6.20;4.75;;;;;;;;;;10248223;28;20095;-50
2024/01/23 13:45:06;;;;;;;5.40;4.47;;;;;;;;;;10240132;28;20034;-49
2024/01/23 13:50:07;;;;;;;7.63;4.22;;;;;;;;;;10243030;28;20607;-50
2024/01/23 13:55:08;;;;;;;4.65;4.03;;;;;;;;;;10280683;28;20037;-49
2024/01/23 14:00:12;;;;;;;6.38;4.45;;;;;;;;;;10255522;28;20018;-48
2024/01/23 14:05:16;;;;;;;5.95;4.43;;;;;;;;;;10299475;28;20453;-50
2024/01/23 14:10:18;;;;;;;5.55;4.25;;;;;;;;;;10295111;28;21241;-49
2024/01/23 14:15:20;;;;;;;6.07;4.32;;;;;;;;;;10302641;28;22327;-46
2024/01/23 14:20:20;;;;;;;7.63;4.25;;;;;;;;;;10231160;28;20031;-51
2024/01/23 14:25:21;;;;;;;5.07;4.10;;;;;;;;;;10238716;28;20057;-50
2024/01/23 14:30:22;;;;;;;6.13;4.13;;;;;;;;;;10246059;28;20041;-50
2024/01/23 14:35:23;;;;;;;5.97;4.20;;;;;;;;;;10238533;28;20393;-46
2024/01/23 14:40:23;;;;;;;5.50;4.07;;;;;;;;;;10237932;28;20069;-46
2024/01/23 14:45:24;;;;;;;9.15;4.78;;;;;;;;;;10241257;28;20030;-50
2024/01/23 14:50:24;;;;;;;5.43;4.13;;;;;;;;;;10238337;28;20019;-51
2024/01/23 14:55:25;;;;;;;10.07;4.40;;;;;;;;;;10260917;28;20034;-50
2024/01/23 15:00:26;;;;;;;8.57;4.38;;;;;;;;;;10318380;28;20038;-49
2024/01/23 15:05:26;;;;;;;10.35;4.53;;;;;;;;;;10311753;28;20029;-50
2024/01/23 15:10:28;;;;;;;8.63;4.20;;;;;;;;;;10332250;28;20042;-48
2024/01/23 15:15:28;;;;;;;10.27;4.18;;;;;;;;;;10306112;28;20023;-47
2024/01/23 15:20:29;;;;;;;4.82;4.15;;;;;;;;;;10309581;28;20034;-46
2024/01/23 15:25:30;;;;;;;12.25;3.97;;;;;;;;;;10331924;28;20486;-47
2024/01/23 15:30:32;;;;;;;8.18;4.10;;;;;;;;;;10301736;28;21367;-48
2024/01/23 15:35:33;;;;;;;5.43;3.80;;;;;;;;;;10316040;28;20049;-51
2024/01/23 15:40:33;;;;;;;5.68;3.92;;;;;;;;;;10270919;28;20062;-51
2024/01/23 15:45:34;;;;;;;5.78;3.90;;;;;;;;;;10231110;28;20068;-53
2024/01/23 15:50:34;;;;;;;5.15;3.70;;;;;;;;;;10222978;28;20068;-53
2024/01/23 15:55:35;;;;;;;5.35;3.88;;;;;;;;;;10220452;28;20026;-54
2024/01/23 16:00:35;;;;;;;4.82;3.63;;;;;;;;;;10291451;28;20027;-50
2024/01/23 16:05:36;;;;;;;4.85;3.50;;;;;;;;;;10308001;28;20043;-50
2024/01/23 16:10:37;;;;;;;12.77;3.85;;;;;;;;;;10315896;28;20034;-50
2024/01/23 16:15:37;;;;;;;9.77;3.20;;;;;;;;;;10325681;28;20030;-50
2024/01/23 16:20:38;;;;;;;6.55;3.78;;;;;;;;;;10325331;28;20031;-51
2024/01/23 16:25:38;;;;;;;4.15;3.60;;;;;;;;;;10298374;28;20033;-49
2024/01/23 16:30:41;;;;;;;5.82;3.70;;;;;;;;;;10325598;28;20454;-51
2024/01/23 16:35:41;;;;;;;8.30;3.80;;;;;;;;;;10292084;28;20154;-52
2024/01/23 16:40:42;;;;;;;4.85;3.50;;;;;;;;;;10321870;28;20178;-46
2024/01/23 16:45:43;;;;;;;4.68;3.33;;;;;;;;;;10319024;28;20105;-51
2024/01/23 16:50:43;;;;;;;8.95;3.72;;;;;;;;;;10257061;28;20031;-51
2024/01/23 16:55:44;;;;;;;5.45;3.45;;;;;;;;;;10215161;28;20508;-50
2024/01/23 17:00:44;;;;;;;5.03;3.60;;;;;;;;;;10261747;28;20037;-50
2024/01/23 17:05:45;;;;;;;5.55;3.45;;;;;;;;;;10234428;28;20046;-54
2024/01/23 17:10:46;;;;;;;4.72;3.30;;;;;;;;;;10310514;28;20551;-51
2024/01/23 17:15:47;;;;;;;4.40;3.55;;;;;;;;;;10296815;28;20030;-48
2024/01/23 17:20:48;;;;;;;6.40;3.83;;;;;;;;;;10327883;28;20072;-52
2024/01/23 17:25:49;;;;;;;14.80;3.75;;;;;;;;;;10289879;28;20035;-46
2024/01/23 17:30:50;;;;;;;5.07;3.72;;;;;;;;;;10321564;28;20038;-50
2024/01/23 17:35:50;;;;;;;4.35;3.75;;;;;;;;;;10326801;28;20030;-47
2024/01/23 17:40:51;;;;;;;4.10;3.70;;;;;;;;;;10317956;28;20042;-47
2024/01/23 17:45:53;;;;;;;8.85;4.00;;;;;;;;;;10314111;28;20394;-48
2024/01/23 17:50:54;;;;;;;6.15;3.25;;;;;;;;;;10318500;28;20038;-53
2024/01/23 17:55:54;;;;;;;8.93;3.63;;;;;;;;;;10293252;28;20061;-46
2024/01/23 18:00:55;;;;;;;4.65;3.67;;;;;;;;;;10248303;28;20429;-47
2024/01/23 18:05:56;;;;;;;6.25;3.85;;;;;;;;;;10241546;28;20112;-46
2024/01/23 18:10:56;;;;;;;5.93;3.78;;;;;;;;;;10296820;28;20049;-51
2024/01/23 18:15:57;;;;;;;4.60;3.65;;;;;;;;;;10292293;28;20048;-46
2024/01/23 18:20:58;;;;;;;5.28;3.95;;;;;;;;;;10252917;28;20034;-50
2024/01/23 18:25:58;;;;;;;7.22;3.45;;;;;;;;;;10317164;28;20035;-49
2024/01/23 18:30:59;;;;;;;5.43;3.75;;;;;;;;;;10294523;28;20027;-54
2024/01/23 18:36:00;;;;;;;5.60;3.65;;;;;;;;;;10312716;28;20030;-53
2024/01/23 18:41:01;;;;;;;6.25;3.65;;;;;;;;;;10308843;28;20023;-50
2024/01/23 18:46:03;;;;;;;5.72;3.70;;;;;;;;;;10321131;28;20065;-55
2024/01/23 18:51:03;;;;;;;6.22;3.97;;;;;;;;;;10319583;28;20169;-47
2024/01/23 18:56:05;;;;;;;7.72;4.45;;;;;;;;;;10275819;28;20709;-47
2024/01/23 19:01:06;;;;;;;8.95;4.03;;;;;;;;;;10230646;28;20026;-50
2024/01/23 19:06:06;;;;;;;12.88;4.65;;;;;;;;;;10231793;28;20088;-47
2024/01/23 19:11:07;;;;;;;9.23;4.95;;;;;;;;;;10300885;28;20057;-48
2024/01/23 19:16:08;;;;;;;6.97;5.18;;;;;;;;;;10291793;28;20489;-51
2024/01/23 19:21:08;;;;;;;9.60;4.43;;;;;;;;;;10230969;28;20188;-49
2024/01/23 19:26:09;;;;;;;7.47;4.78;;;;;;;;;;10282037;28;20041;-50
2024/01/23 19:31:10;;;;;;;10.10;4.70;;;;;;;;;;10333914;28;20033;-51
2024/01/23 19:36:10;;;;;;;13.90;5.32;;;;;;;;;;10313539;28;20061;-47
2024/01/23 19:41:11;;;;;;;12.40;5.25;;;;;;;;;;10320663;28;20105;-50
2024/01/23 19:46:11;;;;;;;9.85;5.72;;;;;;;;;;10328056;28;20044;-48
2024/01/23 19:51:12;;;;;;;12.10;5.82;;;;;;;;;;10327710;28;20034;-49
2024/01/23 19:56:13;;;;;;;11.18;5.30;;;;;;;;;;10327765;28;20049;-52
2024/01/23 20:01:13;;;;;;;8.50;5.45;;;;;;;;;;10324002;28;20038;-51
2024/01/23 20:06:14;;;;;;;13.20;6.07;;;;;;;;;;10329291;28;20037;-52
2024/01/23 20:11:14;;;;;;;10.88;5.78;;;;;;;;;;10327422;28;20042;-54
2024/01/23 20:16:15;;;;;;;15.43;6.18;;;;;;;;;;10327479;28;20038;-50
2024/01/23 20:21:16;;;;;;;9.52;5.80;;;;;;;;;;10322184;28;20046;-53
2024/01/23 20:26:18;;;;;;;12.80;6.15;;;;;;;;;;10330811;28;20473;-47
2024/01/23 20:31:19;;;;;;;7.38;5.40;;;;;;;;;;10337552;28;20037;-59
2024/01/23 20:36:19;;;;;;;12.93;5.45;;;;;;;;;;10348942;28;20042;-59
2024/01/23 20:41:20;;;;;;;8.32;5.97;;;;;;;;;;10344798;28;20038;-56
2024/01/23 20:46:20;;;;;;;9.15;5.38;;;;;;;;;;10349784;28;20029;-60
2024/01/23 20:51:22;;;;;;;6.57;5.07;;;;;;;;;;10347113;28;20361;-58
2024/01/23 20:56:23;;;;;;;7.38;5.38;;;;;;;;;;10324092;28;20096;-60
2024/01/23 21:01:27;;;;;;;9.77;5.10;;;;;;;;;;10314139;28;20028;-59
2024/01/23 21:06:28;;;;;;;9.63;5.72;;;;;;;;;;10322189;28;20096;-60
2024/01/23 21:11:29;;;;;;;9.80;5.40;;;;;;;;;;10325590;28;20100;-56
2024/01/23 21:16:30;;;;;;;9.32;5.55;;;;;;;;;;10324456;28;20030;-59
2024/01/23 21:21:30;;;;;;;9.30;5.47;;;;;;;;;;10323506;28;20034;-56
2024/01/23 21:26:32;;;;;;;9.25;5.70;;;;;;;;;;10329900;28;20027;-49
2024/01/23 21:31:32;;;;;;;8.82;5.15;;;;;;;;;;10330276;28;20026;-50
2024/01/23 21:36:33;;;;;;;9.70;4.78;;;;;;;;;;10350928;28;20050;-55
2024/01/23 21:41:33;;;;;;;8.93;5.03;;;;;;;;;;10353901;28;20030;-47
2024/01/23 21:46:34;;;;;;;6.00;4.70;;;;;;;;;;10342100;28;20073;-50
2024/01/23 21:51:34;;;;;;;8.02;4.93;;;;;;;;;;10356518;28;20034;-50
2024/01/23 21:56:35;;;;;;;7.50;4.95;;;;;;;;;;10337745;28;20026;-48
2024/01/23 22:01:37;;;;;;;8.48;5.43;;;;;;;;;;10349832;28;20488;-49
2024/01/23 22:06:38;;;;;;;7.65;5.30;;;;;;;;;;10336626;28;20501;-50
2024/01/23 22:11:39;;;;;;;6.78;4.93;;;;;;;;;;10323787;28;20033;-49
2024/01/23 22:16:39;;;;;;;9.20;5.05;;;;;;;;;;10328215;28;20030;-50
2024/01/23 22:21:40;;;;;;;7.57;4.78;;;;;;;;;;10324128;28;20276;-48
2024/01/23 22:26:40;;;;;;;6.43;4.43;;;;;;;;;;10339799;28;20426;-48
2024/01/23 22:31:41;;;;;;;10.02;6.50;;;;;;;;;;10339438;28;20438;-59
2024/01/23 22:36:41;;;;;;;11.80;6.35;;;;;;;;;;10331098;28;20053;-55
2024/01/23 22:41:42;;;;;;;19.20;6.45;;;;;;;;;;10331045;28;20022;-57
2024/01/23 22:46:43;;;;;;;14.15;6.32;;;;;;;;;;10330826;28;20034;-58
2024/01/23 22:51:43;;;;;;;13.27;7.40;;;;;;;;;;10328833;28;20041;-56
2024/01/23 22:56:45;;;;;;;13.52;7.22;;;;;;;;;;10323655;28;20015;-58
2024/01/23 23:01:46;;;;;;;17.70;8.00;;;;;;;;;;10329484;28;20030;-52
2024/01/23 23:06:46;;;;;;;12.48;7.60;;;;;;;;;;10329939;28;20038;-57
2024/01/23 23:11:47;;;;;;;14.18;7.53;;;;;;;;;;10320549;28;20373;-56
2024/01/23 23:16:48;;;;;;;17.60;7.90;;;;;;;;;;10331438;28;20037;-46
2024/01/23 23:21:49;;;;;;;14.05;8.05;;;;;;;;;;10310488;28;20042;-46
2024/01/23 23:26:50;;;;;;;13.05;7.60;;;;;;;;;;10222264;28;20281;-47
2024/01/23 23:31:51;;;;;;;17.48;8.15;;;;;;;;;;10213889;28;20030;-45
2024/01/23 23:36:52;;;;;;;10.50;7.45;;;;;;;;;;10223324;28;20038;-50
2024/01/23 23:41:53;;;;;;;12.30;7.28;;;;;;;;;;10283100;28;20069;-45
2024/01/23 23:46:55;;;;;;;15.98;7.80;;;;;;;;;;10224761;28;21148;-59
2024/01/23 23:51:55;;;;;;;13.95;7.78;;;;;;;;;;10330806;28;20031;-59
2024/01/23 23:56:56;;;;;;;13.85;6.78;;;;;;;;;;10336536;28;20023;-56
